Wetterdaten: Woche 27.05.13 - 02.06.13 (KW22)
Datum Zeit Temperatur Luftfeuchte Luftdruck Niederschlag Windrichtung Sonnenschein Solar Wind
27.05.2013 00:00 5,4 C 93 % 1012,6 hPa 0,0 l/m W-SW 0,00 h 0 W/m 19,8 km/h (4 Bft)
27.05.2013 01:00 5,5 C 93 % 1012,5 hPa 0,0 l/m W-SW 0,00 h 0 W/m 23,3 km/h (4 Bft)
27.05.2013 02:00 5,6 C 94 % 1012,2 hPa 0,0 l/m W-SW 0,00 h 0 W/m 18,4 km/h (3 Bft)
27.05.2013 03:00 5,6 C 93 % 1012,0 hPa 0,0 l/m W-SW 0,00 h 0 W/m 21,9 km/h (4 Bft)
27.05.2013 04:00 5,7 C 93 % 1012,0 hPa 0,0 l/m SW 0,00 h 0 W/m 25,9 km/h (4 Bft)
27.05.2013 05:00 5,8 C 92 % 1011,9 hPa 0,0 l/m W-SW 0,00 h 0 W/m 25,2 km/h (4 Bft)
27.05.2013 06:00 6,0 C 92 % 1012,1 hPa 0,2 l/m SW 0,00 h 15 W/m 21,2 km/h (4 Bft)
27.05.2013 07:00 6,3 C 92 % 1012,4 hPa 0,0 l/m SW 0,00 h 44 W/m 18,6 km/h (3 Bft)
27.05.2013 08:00 7,2 C 91 % 1012,5 hPa 0,0 l/m W-SW 0,17 h 177 W/m 22,3 km/h (4 Bft)
27.05.2013 09:00 8,9 C 83 % 1012,5 hPa 0,0 l/m W-SW 0,83 h 491 W/m 29,4 km/h (5 Bft)
27.05.2013 10:00 10,2 C 76 % 1012,6 hPa 0,0 l/m W-SW 0,67 h 529 W/m 23,1 km/h (4 Bft)
27.05.2013 11:00 11,1 C 74 % 1012,3 hPa 0,0 l/m W-SW 0,50 h 566 W/m 24,0 km/h (4 Bft)
27.05.2013 12:00 12,5 C 71 % 1011,8 hPa 0,0 l/m W 0,75 h 641 W/m 20,8 km/h (4 Bft)
27.05.2013 13:00 13,8 C 65 % 1011,3 hPa 0,0 l/m W-SW 0,67 h 753 W/m 22,8 km/h (4 Bft)
27.05.2013 14:00 14,6 C 61 % 1010,9 hPa 0,0 l/m SW 0,50 h 664 W/m 17,0 km/h (3 Bft)
27.05.2013 15:00 15,6 C 56 % 1010,4 hPa 0,0 l/m SW 0,42 h 497 W/m 16,5 km/h (3 Bft)
27.05.2013 16:00 16,2 C 53 % 1009,7 hPa 0,0 l/m SW 0,75 h 602 W/m 12,0 km/h (2 Bft)
27.05.2013 17:00 16,5 C 50 % 1009,2 hPa 0,0 l/m W-NW 0,92 h 495 W/m 9,1 km/h (2 Bft)
27.05.2013 18:00 15,9 C 51 % 1008,9 hPa 0,0 l/m W-NW 0,50 h 207 W/m 4,9 km/h (1 Bft)
27.05.2013 19:00 14,7 C 57 % 1008,7 hPa 0,0 l/m W-NW 0,08 h 47 W/m 2,9 km/h (1 Bft)
27.05.2013 20:00 12,4 C 73 % 1008,5 hPa 0,0 l/m N 0,00 h 22 W/m 0,0 km/h (0 Bft)
27.05.2013 21:00 10,0 C 81 % 1008,2 hPa 0,0 l/m N 0,00 h 5 W/m 0,5 km/h (0 Bft)
27.05.2013 22:00 8,3 C 85 % 1008,3 hPa 0,0 l/m N 0,00 h 0 W/m 0,5 km/h (0 Bft)
27.05.2013 23:00 7,5 C 89 % 1008,0 hPa 0,0 l/m N 0,00 h 0 W/m 0,5 km/h (0 Bft)
28.05.2013 00:00 7,1 C 91 % 1007,9 hPa 0,0 l/m N 0,00 h 0 W/m 1,9 km/h (1 Bft)
28.05.2013 01:00 6,7 C 92 % 1007,5 hPa 0,0 l/m W-NW 0,00 h 0 W/m 3,1 km/h (1 Bft)
28.05.2013 02:00 6,5 C 93 % 1006,9 hPa 0,0 l/m N 0,00 h 0 W/m 2,4 km/h (1 Bft)
28.05.2013 03:00 5,9 C 95 % 1006,5 hPa 0,0 l/m W-NW 0,00 h 0 W/m 2,0 km/h (1 Bft)
28.05.2013 04:00 5,9 C 96 % 1006,1 hPa 0,0 l/m N 0,00 h 0 W/m 1,2 km/h (1 Bft)
28.05.2013 05:00 5,9 C 95 % 1005,9 hPa 0,0 l/m N 0,00 h 9 W/m 0,3 km/h (0 Bft)
28.05.2013 06:00 5,8 C 96 % 1005,7 hPa 0,0 l/m N 0,00 h 41 W/m 0,4 km/h (0 Bft)
28.05.2013 07:00 8,3 C 90 % 1005,5 hPa 0,0 l/m N 1,00 h 232 W/m 0,0 km/h (0 Bft)
28.05.2013 08:00 10,6 C 83 % 1005,1 hPa 0,0 l/m N 0,33 h 236 W/m 0,0 km/h (0 Bft)
28.05.2013 09:00 12,2 C 78 % 1004,9 hPa 0,0 l/m S-SW 0,67 h 359 W/m 7,8 km/h (2 Bft)
28.05.2013 10:00 14,3 C 72 % 1004,1 hPa 0,0 l/m N 0,67 h 542 W/m 0,9 km/h (0 Bft)
28.05.2013 11:00 16,6 C 64 % 1003,2 hPa 0,0 l/m S 0,75 h 702 W/m 5,9 km/h (2 Bft)
28.05.2013 12:00 18,1 C 53 % 1002,4 hPa 0,0 l/m O 1,00 h 904 W/m 5,8 km/h (2 Bft)
28.05.2013 13:00 19,2 C 48 % 1001,6 hPa 0,0 l/m SO 0,83 h 829 W/m 8,2 km/h (2 Bft)
28.05.2013 14:00 20,6 C 44 % 1000,7 hPa 0,0 l/m S-SW 1,00 h 924 W/m 12,8 km/h (3 Bft)
28.05.2013 15:00 21,4 C 42 % 999,8 hPa 0,0 l/m W-SW 1,00 h 861 W/m 8,5 km/h (2 Bft)
28.05.2013 16:00 21,4 C 39 % 998,9 hPa 0,0 l/m S-SW 1,00 h 705 W/m 4,4 km/h (1 Bft)
28.05.2013 17:00 21,7 C 37 % 998,2 hPa 0,0 l/m S 0,92 h 539 W/m 4,4 km/h (1 Bft)
28.05.2013 18:00 21,4 C 37 % 997,9 hPa 0,0 l/m N 1,00 h 402 W/m 1,6 km/h (1 Bft)
28.05.2013 19:00 19,3 C 46 % 997,6 hPa 0,0 l/m O-SO 0,00 h 50 W/m 2,1 km/h (1 Bft)
28.05.2013 20:00 17,1 C 58 % 997,9 hPa 0,0 l/m W-NW 0,00 h 20 W/m 11,8 km/h (2 Bft)
28.05.2013 21:00 12,8 C 80 % 999,2 hPa 0,2 l/m NW 0,00 h 0 W/m 22,3 km/h (4 Bft)
28.05.2013 22:00 12,1 C 85 % 999,7 hPa 0,0 l/m NW 0,00 h 0 W/m 5,1 km/h (1 Bft)
28.05.2013 23:00 11,4 C 91 % 1000,0 hPa 0,4 l/m SW 0,00 h 0 W/m 8,3 km/h (2 Bft)
29.05.2013 00:00 10,8 C 94 % 1000,0 hPa 0,0 l/m SW 0,00 h 0 W/m 11,4 km/h (2 Bft)
29.05.2013 01:00 10,3 C 95 % 999,8 hPa 0,0 l/m W-SW 0,00 h 0 W/m 10,9 km/h (2 Bft)
29.05.2013 02:00 9,9 C 96 % 999,6 hPa 0,6 l/m SW 0,00 h 0 W/m 12,6 km/h (3 Bft)
29.05.2013 03:00 8,7 C 96 % 999,5 hPa 0,8 l/m W-SW 0,00 h 0 W/m 16,4 km/h (3 Bft)
29.05.2013 04:00 7,1 C 96 % 999,8 hPa 1,4 l/m W-SW 0,00 h 0 W/m 20,5 km/h (4 Bft)
29.05.2013 05:00 6,2 C 96 % 1000,3 hPa 1,6 l/m W-SW 0,00 h 6 W/m 21,2 km/h (4 Bft)
29.05.2013 06:00 5,9 C 96 % 1000,6 hPa 1,2 l/m W-SW 0,00 h 24 W/m 20,4 km/h (4 Bft)
29.05.2013 07:00 5,7 C 96 % 1000,6 hPa 0,8 l/m W-SW 0,00 h 58 W/m 16,4 km/h (3 Bft)
29.05.2013 08:00 5,8 C 95 % 1000,7 hPa 0,4 l/m W-SW 0,00 h 66 W/m 15,4 km/h (3 Bft)
29.05.2013 09:00 5,9 C 96 % 1001,0 hPa 0,8 l/m W-SW 0,00 h 76 W/m 16,6 km/h (3 Bft)
29.05.2013 10:00 5,9 C 95 % 1001,4 hPa 1,2 l/m W-SW 0,00 h 114 W/m 17,7 km/h (3 Bft)
29.05.2013 11:00 6,5 C 95 % 1001,1 hPa 0,6 l/m W-SW 0,00 h 270 W/m 19,8 km/h (4 Bft)
29.05.2013 12:00 7,6 C 94 % 1001,4 hPa 0,0 l/m W-SW 0,00 h 217 W/m 19,3 km/h (3 Bft)
29.05.2013 13:00 7,6 C 93 % 1001,8 hPa 0,0 l/m W-SW 0,00 h 156 W/m 17,0 km/h (3 Bft)
29.05.2013 14:00 8,1 C 93 % 1002,0 hPa 0,0 l/m W-SW 0,00 h 214 W/m 19,3 km/h (3 Bft)
29.05.2013 15:00 8,6 C 90 % 1002,3 hPa 0,0 l/m W-SW 0,00 h 232 W/m 19,6 km/h (3 Bft)
29.05.2013 16:00 9,6 C 86 % 1002,5 hPa 0,0 l/m W 0,08 h 298 W/m 15,6 km/h (3 Bft)
29.05.2013 17:00 10,3 C 79 % 1002,6 hPa 0,0 l/m W 0,33 h 264 W/m 19,7 km/h (3 Bft)
29.05.2013 18:00 9,7 C 80 % 1002,9 hPa 0,0 l/m W-SW 0,42 h 223 W/m 14,4 km/h (3 Bft)
29.05.2013 19:00 9,5 C 84 % 1003,4 hPa 0,0 l/m W-SW 0,00 h 67 W/m 7,0 km/h (2 Bft)
29.05.2013 20:00 8,6 C 85 % 1003,8 hPa 0,0 l/m W-NW 0,00 h 6 W/m 6,5 km/h (2 Bft)
29.05.2013 21:00 7,7 C 87 % 1004,3 hPa 0,2 l/m W-NW 0,00 h 0 W/m 4,5 km/h (1 Bft)
29.05.2013 22:00 7,2 C 91 % 1005,0 hPa 0,0 l/m W-NW 0,00 h 0 W/m 4,0 km/h (1 Bft)
29.05.2013 23:00 7,2 C 92 % 1005,2 hPa 0,0 l/m N 0,00 h 0 W/m 2,1 km/h (1 Bft)
30.05.2013 00:00 7,1 C 94 % 1005,4 hPa 0,0 l/m N 0,00 h 0 W/m 0,7 km/h (0 Bft)
30.05.2013 01:00 6,8 C 95 % 1005,2 hPa 0,0 l/m N 0,00 h 0 W/m 0,3 km/h (0 Bft)
30.05.2013 02:00 6,2 C 96 % 1005,2 hPa 0,0 l/m N 0,00 h 0 W/m 0,0 km/h (0 Bft)
30.05.2013 03:00 5,2 C 97 % 1005,2 hPa 0,0 l/m N 0,00 h 0 W/m 0,0 km/h (0 Bft)
30.05.2013 04:00 4,7 C 98 % 1005,2 hPa 0,0 l/m N 0,00 h 0 W/m 0,0 km/h (0 Bft)
30.05.2013 05:00 5,2 C 98 % 1005,4 hPa 0,0 l/m N 0,00 h 9 W/m 0,0 km/h (0 Bft)
30.05.2013 06:00 5,7 C 98 % 1005,5 hPa 0,0 l/m N 0,00 h 40 W/m 0,5 km/h (0 Bft)
30.05.2013 07:00 6,2 C 98 % 1005,9 hPa 0,0 l/m W-NW 0,00 h 101 W/m 2,4 km/h (1 Bft)
30.05.2013 08:00 8,1 C 91 % 1006,1 hPa 0,0 l/m W-NW 0,58 h 289 W/m 3,3 km/h (1 Bft)
30.05.2013 09:00 9,7 C 78 % 1005,8 hPa 0,0 l/m NW 0,25 h 233 W/m 6,8 km/h (2 Bft)
30.05.2013 10:00 9,9 C 77 % 1005,7 hPa 0,0 l/m NW 0,00 h 251 W/m 5,5 km/h (1 Bft)
30.05.2013 11:00 11,2 C 75 % 1005,8 hPa 0,0 l/m SW 0,17 h 307 W/m 9,1 km/h (2 Bft)
30.05.2013 12:00 9,1 C 83 % 1006,2 hPa 0,2 l/m W-SW 0,00 h 71 W/m 10,7 km/h (2 Bft)
30.05.2013 13:00 9,5 C 86 % 1006,3 hPa 0,0 l/m W-SW 0,00 h 192 W/m 8,8 km/h (2 Bft)
30.05.2013 14:00 10,5 C 79 % 1006,0 hPa 0,0 l/m W-SW 0,00 h 241 W/m 13,0 km/h (3 Bft)
30.05.2013 15:00 11,7 C 73 % 1005,7 hPa 0,0 l/m W-SW 0,00 h 242 W/m 12,6 km/h (3 Bft)
30.05.2013 16:00 10,8 C 73 % 1005,7 hPa 0,0 l/m NO 0,00 h 106 W/m 11,7 km/h (2 Bft)
30.05.2013 17:00 10,6 C 75 % 1005,3 hPa 0,0 l/m N 0,00 h 100 W/m 3,1 km/h (1 Bft)
30.05.2013 18:00 10,7 C 80 % 1005,1 hPa 0,0 l/m NO 0,00 h 51 W/m 4,7 km/h (1 Bft)
30.05.2013 19:00 10,6 C 83 % 1005,4 hPa 0,0 l/m SW 0,00 h 32 W/m 5,5 km/h (1 Bft)
30.05.2013 20:00 9,9 C 85 % 1005,6 hPa 0,6 l/m SW 0,00 h 15 W/m 11,1 km/h (2 Bft)
30.05.2013 21:00 8,8 C 90 % 1005,6 hPa 0,0 l/m SW 0,00 h 0 W/m 7,8 km/h (2 Bft)
30.05.2013 22:00 8,6 C 93 % 1005,7 hPa 0,4 l/m SW 0,00 h 0 W/m 2,0 km/h (1 Bft)
30.05.2013 23:00 8,2 C 95 % 1005,4 hPa 0,0 l/m SW 0,00 h 0 W/m 7,8 km/h (2 Bft)
31.05.2013 00:00 8,3 C 94 % 1005,1 hPa 0,8 l/m W 0,00 h 0 W/m 7,9 km/h (2 Bft)
31.05.2013 01:00 8,0 C 95 % 1005,2 hPa 2,6 l/m W 0,00 h 0 W/m 8,4 km/h (2 Bft)
31.05.2013 02:00 7,8 C 96 % 1004,7 hPa 1,6 l/m W 0,00 h 0 W/m 12,1 km/h (2 Bft)
31.05.2013 03:00 7,8 C 96 % 1004,2 hPa 1,8 l/m W 0,00 h 0 W/m 14,9 km/h (3 Bft)
31.05.2013 04:00 7,5 C 96 % 1003,6 hPa 2,8 l/m W 0,00 h 0 W/m 17,8 km/h (3 Bft)
31.05.2013 05:00 7,2 C 96 % 1003,2 hPa 2,0 l/m W 0,00 h 5 W/m 14,6 km/h (3 Bft)
31.05.2013 06:00 7,3 C 97 % 1002,8 hPa 2,8 l/m W 0,00 h 10 W/m 16,1 km/h (3 Bft)
31.05.2013 07:00 7,2 C 96 % 1002,6 hPa 2,4 l/m W-SW 0,00 h 21 W/m 22,6 km/h (4 Bft)
31.05.2013 08:00 6,9 C 96 % 1002,5 hPa 2,8 l/m W-SW 0,00 h 39 W/m 27,6 km/h (4 Bft)
31.05.2013 09:00 6,7 C 95 % 1002,1 hPa 2,0 l/m W-SW 0,00 h 64 W/m 27,8 km/h (4 Bft)
31.05.2013 10:00 6,7 C 96 % 1002,1 hPa 2,0 l/m W-SW 0,00 h 115 W/m 28,7 km/h (4 Bft)
31.05.2013 11:00 7,2 C 96 % 1002,2 hPa 1,4 l/m W-SW 0,00 h 146 W/m 30,2 km/h (5 Bft)
31.05.2013 12:00 7,4 C 96 % 1002,4 hPa 1,4 l/m SW 0,00 h 99 W/m 34,9 km/h (5 Bft)
31.05.2013 13:00 7,4 C 96 % 1002,8 hPa 1,0 l/m W-SW 0,00 h 100 W/m 33,5 km/h (5 Bft)
31.05.2013 14:00 7,6 C 97 % 1003,2 hPa 1,8 l/m W-SW 0,00 h 76 W/m 28,2 km/h (4 Bft)
31.05.2013 15:00 7,8 C 97 % 1003,1 hPa 2,0 l/m W-SW 0,00 h 68 W/m 26,8 km/h (4 Bft)
31.05.2013 16:00 8,0 C 97 % 1003,0 hPa 1,2 l/m W-SW 0,00 h 83 W/m 29,7 km/h (5 Bft)
31.05.2013 17:00 8,1 C 97 % 1003,3 hPa 2,0 l/m W-SW 0,00 h 60 W/m 28,7 km/h (4 Bft)
31.05.2013 18:00 8,3 C 97 % 1003,6 hPa 0,4 l/m W 0,00 h 22 W/m 13,7 km/h (3 Bft)
31.05.2013 19:00 8,5 C 97 % 1003,5 hPa 0,4 l/m W-SW 0,00 h 9 W/m 10,2 km/h (2 Bft)
31.05.2013 20:00 8,9 C 98 % 1003,6 hPa 2,0 l/m W 0,00 h 0 W/m 12,4 km/h (3 Bft)
31.05.2013 21:00 9,8 C 99 % 1003,5 hPa 1,2 l/m W 0,00 h 0 W/m 11,0 km/h (2 Bft)
31.05.2013 22:00 10,4 C 98 % 1003,6 hPa 4,0 l/m W-NW 0,00 h 0 W/m 9,4 km/h (2 Bft)
31.05.2013 23:00 10,3 C 99 % 1003,7 hPa 6,4 l/m SO 0,00 h 0 W/m 7,8 km/h (2 Bft)
01.06.2013 00:00 10,0 C 99 % 1004,0 hPa 1,4 l/m W-NW 0,00 h 0 W/m 5,9 km/h (2 Bft)
01.06.2013 01:00 9,7 C 99 % 1004,6 hPa 0,2 l/m NO 0,00 h 0 W/m 5,1 km/h (1 Bft)
01.06.2013 02:00 9,2 C 99 % 1005,0 hPa 0,2 l/m N-NO 0,00 h 0 W/m 3,2 km/h (1 Bft)
01.06.2013 03:00 10,3 C 100 % 1005,7 hPa 0,0 l/m N 0,00 h 0 W/m 6,0 km/h (2 Bft)
01.06.2013 04:00 10,8 C 100 % 1006,2 hPa 0,0 l/m N 0,00 h 0 W/m 7,4 km/h (2 Bft)
01.06.2013 05:00 10,4 C 99 % 1006,7 hPa 0,0 l/m N 0,00 h 5 W/m 2,5 km/h (1 Bft)
01.06.2013 06:00 10,1 C 99 % 1007,5 hPa 0,0 l/m NW 0,00 h 19 W/m 3,5 km/h (1 Bft)
01.06.2013 07:00 9,8 C 100 % 1008,1 hPa 0,0 l/m W-SW 0,00 h 56 W/m 5,6 km/h (1 Bft)
01.06.2013 08:00 9,7 C 100 % 1008,8 hPa 0,2 l/m S-SW 0,00 h 35 W/m 8,4 km/h (2 Bft)
01.06.2013 09:00 10,5 C 100 % 1009,0 hPa 0,0 l/m S-SW 0,00 h 68 W/m 8,7 km/h (2 Bft)
01.06.2013 10:00 11,3 C 100 % 1009,0 hPa 0,0 l/m W-NW 0,00 h 59 W/m 11,7 km/h (2 Bft)
01.06.2013 11:00 12,0 C 98 % 1009,1 hPa 0,0 l/m NW 0,00 h 112 W/m 16,1 km/h (3 Bft)
01.06.2013 12:00 11,9 C 96 % 1009,5 hPa 0,6 l/m W-NW 0,00 h 99 W/m 15,2 km/h (3 Bft)
01.06.2013 13:00 11,8 C 97 % 1009,6 hPa 0,2 l/m W-NW 0,00 h 95 W/m 14,9 km/h (3 Bft)
01.06.2013 14:00 11,6 C 96 % 1009,9 hPa 1,0 l/m W-NW 0,00 h 72 W/m 15,3 km/h (3 Bft)
01.06.2013 15:00 11,3 C 97 % 1010,1 hPa 0,2 l/m W-NW 0,00 h 44 W/m 15,3 km/h (3 Bft)
01.06.2013 16:00 11,2 C 97 % 1010,6 hPa 0,8 l/m NW 0,00 h 21 W/m 12,9 km/h (3 Bft)
01.06.2013 17:00 11,1 C 97 % 1010,8 hPa 0,8 l/m NW 0,00 h 18 W/m 12,4 km/h (3 Bft)
01.06.2013 18:00 11,4 C 97 % 1011,2 hPa 0,6 l/m NW 0,00 h 31 W/m 11,4 km/h (2 Bft)
01.06.2013 19:00 11,3 C 97 % 1011,6 hPa 1,4 l/m NW 0,00 h 12 W/m 7,2 km/h (2 Bft)
01.06.2013 20:00 11,1 C 98 % 1012,3 hPa 1,2 l/m NW 0,00 h 7 W/m 11,1 km/h (2 Bft)
01.06.2013 21:00 10,8 C 98 % 1013,0 hPa 0,6 l/m N-NW 0,00 h 0 W/m 12,2 km/h (2 Bft)
01.06.2013 22:00 10,4 C 97 % 1013,4 hPa 0,2 l/m N-NW 0,00 h 0 W/m 13,0 km/h (3 Bft)
01.06.2013 23:00 10,3 C 97 % 1013,6 hPa 0,2 l/m NW 0,00 h 0 W/m 13,2 km/h (3 Bft)
02.06.2013 00:00 9,9 C 97 % 1013,9 hPa 1,4 l/m N-NW 0,00 h 0 W/m 17,8 km/h (3 Bft)
02.06.2013 01:00 9,6 C 97 % 1014,1 hPa 0,0 l/m N 0,00 h 0 W/m 21,8 km/h (4 Bft)
02.06.2013 02:00 9,3 C 97 % 1014,1 hPa 0,0 l/m N-NW 0,00 h 0 W/m 18,8 km/h (3 Bft)
02.06.2013 03:00 9,2 C 97 % 1014,1 hPa 1,4 l/m NW 0,00 h 0 W/m 19,7 km/h (3 Bft)
02.06.2013 04:00 8,9 C 97 % 1014,1 hPa 1,6 l/m N 0,00 h 0 W/m 17,3 km/h (3 Bft)
02.06.2013 05:00 8,7 C 97 % 1014,7 hPa 0,0 l/m N 0,00 h 0 W/m 16,1 km/h (3 Bft)
02.06.2013 06:00 8,2 C 97 % 1015,3 hPa 0,2 l/m N-NW 0,00 h 12 W/m 14,2 km/h (3 Bft)
02.06.2013 07:00 8,3 C 97 % 1015,7 hPa 0,0 l/m N-NW 0,00 h 31 W/m 9,1 km/h (2 Bft)
02.06.2013 08:00 8,5 C 96 % 1016,2 hPa 0,0 l/m N-NW 0,00 h 42 W/m 11,0 km/h (2 Bft)
02.06.2013 09:00 8,8 C 95 % 1016,7 hPa 0,0 l/m NW 0,00 h 66 W/m 12,3 km/h (3 Bft)
02.06.2013 10:00 9,3 C 93 % 1017,0 hPa 0,0 l/m W-NW 0,00 h 123 W/m 11,7 km/h (2 Bft)
02.06.2013 11:00 10,6 C 88 % 1017,4 hPa 0,0 l/m N-NW 0,08 h 311 W/m 11,3 km/h (2 Bft)
02.06.2013 12:00 11,8 C 82 % 1017,6 hPa 0,0 l/m N 0,00 h 297 W/m 9,5 km/h (2 Bft)
02.06.2013 13:00 13,0 C 77 % 1017,5 hPa 0,0 l/m N 0,00 h 292 W/m 10,6 km/h (2 Bft)
02.06.2013 14:00 13,3 C 76 % 1017,8 hPa 0,0 l/m W-NW 0,00 h 198 W/m 13,0 km/h (3 Bft)
02.06.2013 15:00 14,5 C 71 % 1017,8 hPa 0,0 l/m N-NO 0,25 h 421 W/m 13,7 km/h (3 Bft)
02.06.2013 16:00 15,7 C 58 % 1017,9 hPa 0,0 l/m N-NW 0,92 h 561 W/m 18,9 km/h (3 Bft)
02.06.2013 17:00 14,9 C 59 % 1018,1 hPa 0,0 l/m N 0,25 h 268 W/m 18,4 km/h (3 Bft)
02.06.2013 18:00 13,5 C 61 % 1018,7 hPa 0,0 l/m N-NO 0,08 h 129 W/m 17,8 km/h (3 Bft)
02.06.2013 19:00 12,3 C 68 % 1019,4 hPa 0,0 l/m N-NO 0,00 h 54 W/m 12,0 km/h (2 Bft)
02.06.2013 20:00 11,4 C 72 % 1019,9 hPa 0,0 l/m N 0,00 h 24 W/m 6,2 km/h (2 Bft)
02.06.2013 21:00 10,1 C 81 % 1020,5 hPa 0,0 l/m N 0,00 h 5 W/m 0,8 km/h (0 Bft)
02.06.2013 22:00 9,2 C 88 % 1020,9 hPa 0,0 l/m N 0,00 h 0 W/m 0,4 km/h (0 Bft)
02.06.2013 23:00 8,8 C 89 % 1021,1 hPa 0,0 l/m N 0,00 h 0 W/m 1,2 km/h (1 Bft)
Min-Datum _ 30.05.13 28.05.13 28.05.13 - - - - 27.05.13
_ Min-Zeit 04:05 17:40 19:30 - - - - 18:50
Minimum _ 4,7 C 35 % 997,5 hPa - - - - 0,0 km/h (0 Bft)
Max-Datum _ 28.05.13 01.06.13 02.06.13 31.05.13 - 27.05.13 27.05.13 31.05.13
_ Max-Zeit 17:40 00:45 22:50 23:40 - 08:40 13:50 13:35
Maximum _ 22,1 C 100 % 1021,2 hPa 6,4 l/m - 0,08 h 1174 W/m 45,1 km/h
W-SW (6 Bft)
Durchschnitt _ 9,9 C 87 % 1007,2 hPa #74,8 l/m W-SW #20:20 h 200 W/m 11,9 km/h (2 Bft)